Time;durP1;ratioP1;P1;durP2;ratioP2;P2;SDS_P1;SDS_P2;PMS_P1;PMS_P2;Temp;Humidity;BMP_temperature;BMP_pressure;BME280_temperature;BME280_humidity;BME280_pressure;Samples;Min_cycle;Max_cycle;Signal;HPM_P1;HPM_P2
2021/05/03 00:00:37;;;;;;;1.52;0.80;;;17.20;57.90;;;;;;5051525;28;20032;-68
2021/05/03 00:03:02;;;;;;;2.63;1.10;;;17.30;57.90;;;;;;5033744;28;20103;-68
2021/05/03 00:05:28;;;;;;;2.53;1.10;;;17.20;57.90;;;;;;5051109;28;20021;-68
2021/05/03 00:07:54;;;;;;;2.65;1.10;;;17.20;58.00;;;;;;5051583;28;20025;-68
2021/05/03 00:10:20;;;;;;;2.42;1.10;;;17.20;58.00;;;;;;5033060;28;20040;-69
2021/05/03 00:12:46;;;;;;;3.10;1.13;;;17.20;58.20;;;;;;5051155;28;20025;-68
2021/05/03 00:15:13;;;;;;;4.22;1.25;;;17.20;58.10;;;;;;5050757;28;20111;-68
2021/05/03 00:17:39;;;;;;;3.17;1.00;;;17.10;58.10;;;;;;5054852;28;20043;-68
2021/05/03 00:20:06;;;;;;;3.03;1.23;;;17.10;58.20;;;;;;5051378;28;20025;-68
2021/05/03 00:22:32;;;;;;;3.28;1.10;;;17.10;58.30;;;;;;5051158;28;20033;-68
2021/05/03 00:24:57;;;;;;;2.78;0.90;;;17.10;58.20;;;;;;5050790;28;20046;-69
2021/05/03 00:27:23;;;;;;;1.75;1.00;;;17.10;58.20;;;;;;5033612;28;20070;-68
2021/05/03 00:29:48;;;;;;;2.90;1.08;;;17.10;58.30;;;;;;5051313;28;20111;-68
2021/05/03 00:32:14;;;;;;;2.38;1.20;;;17.10;58.20;;;;;;5033167;28;20099;-69
2021/05/03 00:34:40;;;;;;;2.55;0.90;;;17.10;58.20;;;;;;5049863;28;20025;-68
2021/05/03 00:37:05;;;;;;;2.63;1.30;;;17.00;58.10;;;;;;5033178;28;20039;-68
2021/05/03 00:39:31;;;;;;;2.85;1.13;;;17.00;58.20;;;;;;5077762;22;20484;-64
2021/05/03 00:41:56;;;;;;;2.83;1.10;;;17.00;58.30;;;;;;5049808;28;20062;-64
2021/05/03 00:44:25;;;;;;;2.70;1.17;;;17.00;58.30;;;;;;5050176;28;20124;-64
2021/05/03 00:46:52;;;;;;;2.67;1.10;;;17.00;58.20;;;;;;5050090;28;20430;-64
2021/05/03 00:49:17;;;;;;;3.22;1.38;;;17.00;58.40;;;;;;5033353;28;20029;-64
2021/05/03 00:51:43;;;;;;;3.15;1.02;;;17.00;58.30;;;;;;5050284;28;20037;-64
2021/05/03 00:54:08;;;;;;;2.90;1.10;;;16.90;58.50;;;;;;5048705;28;20039;-65
2021/05/03 00:56:34;;;;;;;1.70;1.00;;;16.90;58.50;;;;;;5033512;28;20529;-64
2021/05/03 00:59:00;;;;;;;2.33;1.20;;;16.90;58.50;;;;;;5033569;28;20461;-64
2021/05/03 01:01:26;;;;;;;2.95;1.10;;;16.90;58.40;;;;;;5032833;28;20223;-64
2021/05/03 01:03:51;;;;;;;2.53;1.30;;;16.90;58.50;;;;;;5032786;28;20116;-66
2021/05/03 01:06:18;;;;;;;2.25;1.10;;;16.80;58.50;;;;;;5050417;28;20078;-65
2021/05/03 01:08:45;;;;;;;2.47;1.08;;;16.80;58.50;;;;;;5051256;28;20492;-64
2021/05/03 01:11:11;;;;;;;3.60;1.08;;;16.80;58.50;;;;;;5051171;28;20037;-64
2021/05/03 01:13:36;;;;;;;3.40;1.17;;;16.80;58.40;;;;;;5032707;28;20036;-64
2021/05/03 01:16:02;;;;;;;3.42;1.20;;;16.90;58.50;;;;;;5050420;28;20540;-64
2021/05/03 01:18:29;;;;;;;2.20;1.27;;;16.80;58.50;;;;;;5050862;28;20108;-63
2021/05/03 01:20:56;;;;;;;2.63;1.00;;;16.80;58.50;;;;;;5050416;28;20028;-64
2021/05/03 01:23:22;;;;;;;3.72;1.00;;;16.80;58.40;;;;;;5049838;28;20435;-64
2021/05/03 01:25:48;;;;;;;3.92;1.13;;;16.70;58.50;;;;;;5032541;28;20025;-64
2021/05/03 01:28:13;;;;;;;2.33;1.10;;;16.70;58.50;;;;;;5050319;28;20101;-64
2021/05/03 01:30:41;;;;;;;2.40;1.15;;;16.80;58.60;;;;;;5050660;28;20439;-64
2021/05/03 01:33:09;;;;;;;1.77;1.00;;;16.70;58.40;;;;;;5038364;28;20016;-63
2021/05/03 01:35:36;;;;;;;3.13;1.30;;;16.70;58.40;;;;;;5049985;28;20476;-64
2021/05/03 01:38:02;;;;;;;1.92;1.00;;;16.70;58.60;;;;;;5050242;28;20063;-64
2021/05/03 01:40:30;;;;;;;3.42;1.30;;;16.70;58.40;;;;;;5049501;28;20029;-66
2021/05/03 01:42:56;;;;;;;2.47;1.10;;;16.70;58.50;;;;;;5050304;28;20061;-66
2021/05/03 01:45:24;;;;;;;3.30;1.20;;;16.60;58.50;;;;;;5032204;28;20433;-64
2021/05/03 01:47:51;;;;;;;3.67;1.20;;;16.70;58.60;;;;;;5046362;28;20021;-63
2021/05/03 01:50:19;;;;;;;2.20;1.05;;;16.60;58.60;;;;;;5050092;28;20511;-64
2021/05/03 01:52:46;;;;;;;1.38;1.13;;;16.60;58.80;;;;;;5032047;28;20036;-63
2021/05/03 01:55:12;;;;;;;3.97;1.25;;;16.60;58.70;;;;;;5050128;28;20503;-64
2021/05/03 01:57:38;;;;;;;1.75;1.00;;;16.60;58.80;;;;;;5049962;28;20028;-64
2021/05/03 02:00:08;;;;;;;3.95;1.25;;;16.60;58.50;;;;;;5050223;28;20037;-64
2021/05/03 02:02:34;;;;;;;2.35;1.00;;;16.60;58.50;;;;;;5050287;28;20021;-63
2021/05/03 02:05:00;;;;;;;4.15;1.30;;;16.50;59.20;;;;;;5049835;28;20480;-64
2021/05/03 02:07:26;;;;;;;2.08;1.13;;;16.60;58.60;;;;;;5035483;28;20025;-64
2021/05/03 02:09:51;;;;;;;1.80;1.10;;;16.60;58.60;;;;;;5053801;28;20059;-64
2021/05/03 02:12:17;;;;;;;3.80;1.30;;;16.60;58.70;;;;;;5035189;28;20028;-64
2021/05/03 02:14:43;;;;;;;1.48;1.08;;;16.50;58.50;;;;;;5052293;28;20033;-64
2021/05/03 02:17:09;;;;;;;3.53;1.27;;;16.50;58.50;;;;;;5035822;28;20492;-64
2021/05/03 02:19:35;;;;;;;3.95;1.50;;;16.50;58.50;;;;;;5053619;28;20032;-64
2021/05/03 02:22:00;;;;;;;3.35;1.20;;;16.50;58.60;;;;;;5053901;28;20116;-64
2021/05/03 02:24:26;;;;;;;2.65;1.20;;;16.50;58.60;;;;;;5053178;28;20387;-66
2021/05/03 02:26:52;;;;;;;2.55;1.30;;;16.50;58.50;;;;;;5035692;28;20112;-64
2021/05/03 02:29:17;;;;;;;4.43;1.25;;;16.50;58.50;;;;;;5034966;28;20111;-63
2021/05/03 02:31:43;;;;;;;2.90;1.40;;;16.50;58.50;;;;;;5053285;28;20029;-65
2021/05/03 02:34:08;;;;;;;2.83;1.17;;;16.50;58.50;;;;;;5052800;28;20029;-64
2021/05/03 02:36:34;;;;;;;3.10;1.27;;;16.50;58.40;;;;;;5035742;28;20056;-64
2021/05/03 02:38:59;;;;;;;1.80;1.23;;;16.50;58.50;;;;;;5053199;28;20043;-64
2021/05/03 02:41:25;;;;;;;2.45;1.27;;;16.40;58.50;;;;;;5053230;28;20036;-68
2021/05/03 02:43:50;;;;;;;3.53;1.38;;;16.40;58.50;;;;;;5053037;28;20603;-64
2021/05/03 02:46:16;;;;;;;3.30;1.40;;;16.50;58.50;;;;;;5034941;28;20021;-64
2021/05/03 02:48:42;;;;;;;3.00;1.50;;;16.50;58.50;;;;;;5053289;28;20116;-65
2021/05/03 02:51:07;;;;;;;1.90;1.10;;;16.40;58.40;;;;;;5035315;28;20021;-64
2021/05/03 02:53:33;;;;;;;2.90;1.30;;;16.40;58.50;;;;;;5034455;28;20111;-64
2021/05/03 02:55:58;;;;;;;3.92;1.23;;;16.40;58.50;;;;;;5052690;28;20051;-63
2021/05/03 02:58:24;;;;;;;4.47;1.30;;;16.40;58.50;;;;;;5053182;28;20021;-64
2021/05/03 03:00:50;;;;;;;3.30;1.25;;;16.40;58.50;;;;;;5052476;28;20048;-63
2021/05/03 03:03:15;;;;;;;2.35;1.30;;;16.40;58.60;;;;;;5035193;28;20021;-64
2021/05/03 03:05:41;;;;;;;3.13;1.40;;;16.40;58.50;;;;;;5043402;28;20025;-66
2021/05/03 03:08:06;;;;;;;3.85;1.40;;;16.30;58.40;;;;;;5052938;28;20649;-64
2021/05/03 03:10:32;;;;;;;4.20;1.70;;;16.30;58.50;;;;;;5052706;28;20403;-64
2021/05/03 03:13:00;;;;;;;3.13;1.30;;;16.30;58.50;;;;;;5052727;28;20036;-64
2021/05/03 03:15:29;;;;;;;1.85;1.10;;;16.30;58.50;;;;;;5051927;28;20062;-64
2021/05/03 03:17:55;;;;;;;2.53;1.20;;;16.30;58.40;;;;;;5052285;28;20013;-63
2021/05/03 03:20:21;;;;;;;3.15;1.33;;;16.30;58.60;;;;;;5034038;28;20095;-64
2021/05/03 03:22:47;;;;;;;2.63;1.48;;;16.20;58.50;;;;;;5052696;28;20032;-65
2021/05/03 03:25:13;;;;;;;3.72;1.42;;;16.20;58.50;;;;;;5033914;28;20028;-64
2021/05/03 03:27:39;;;;;;;1.83;1.20;;;16.20;58.50;;;;;;5052557;28;20066;-64
2021/05/03 03:30:07;;;;;;;3.08;1.52;;;16.20;58.50;;;;;;5052377;28;20021;-64
2021/05/03 03:32:34;;;;;;;1.80;1.20;;;16.20;58.40;;;;;;5052323;28;20039;-64
2021/05/03 03:34:59;;;;;;;2.97;1.80;;;16.20;58.40;;;;;;5033675;28;20480;-64
2021/05/03 03:37:25;;;;;;;3.03;1.17;;;16.10;58.40;;;;;;5033965;28;20036;-66
2021/05/03 03:39:50;;;;;;;2.95;1.23;;;16.20;58.40;;;;;;5052377;28;20032;-63
2021/05/03 03:42:16;;;;;;;2.42;1.30;;;16.20;58.40;;;;;;5052311;28;20040;-63
2021/05/03 03:44:41;;;;;;;2.80;1.40;;;16.20;58.30;;;;;;5033690;28;20037;-65
2021/05/03 03:47:07;;;;;;;3.38;1.50;;;16.20;58.30;;;;;;5033970;28;20377;-64
2021/05/03 03:49:32;;;;;;;2.28;1.50;;;16.20;58.40;;;;;;5034386;28;20017;-64
2021/05/03 03:51:58;;;;;;;4.75;1.60;;;16.10;58.40;;;;;;5034115;28;20433;-64
2021/05/03 03:54:23;;;;;;;2.15;1.33;;;16.10;58.40;;;;;;5051401;28;20036;-65
2021/05/03 03:56:49;;;;;;;6.15;1.40;;;16.10;58.60;;;;;;5043961;28;20028;-64
2021/05/03 03:59:15;;;;;;;2.28;1.30;;;16.20;58.40;;;;;;5034239;28;20025;-66
2021/05/03 04:01:42;;;;;;;1.88;1.27;;;16.10;58.40;;;;;;5051452;28;20025;-65
2021/05/03 04:04:26;;;;;;;3.22;1.52;;;16.20;58.40;;;;;;5033651;28;20025;-64
2021/05/03 04:06:57;;;;;;;3.13;1.33;;;16.20;58.40;;;;;;5052233;28;20013;-64
2021/05/03 04:09:34;;;;;;;2.90;1.45;;;16.20;58.30;;;;;;5034119;28;20017;-66
2021/05/03 04:12:22;;;;;;;2.45;1.20;;;16.10;58.30;;;;;;5051751;28;20029;-64
2021/05/03 04:27:54;;;;;;;3.00;1.40;;;16.10;58.10;;;;;;5051657;28;20021;-65
2021/05/03 04:30:20;;;;;;;2.38;1.38;;;16.10;58.00;;;;;;5044846;28;20427;-63
2021/05/03 04:32:46;;;;;;;3.03;1.50;;;16.10;58.10;;;;;;5050916;28;20029;-63
2021/05/03 04:35:11;;;;;;;2.97;1.70;;;16.20;58.10;;;;;;5050652;28;20037;-63
2021/05/03 04:37:37;;;;;;;2.60;1.30;;;16.20;58.20;;;;;;5050314;28;20029;-65
2021/05/03 04:40:03;;;;;;;3.22;1.38;;;16.20;58.20;;;;;;5050361;28;20602;-64
2021/05/03 04:42:29;;;;;;;2.42;1.30;;;16.10;58.10;;;;;;5033082;28;20146;-64
2021/05/03 04:44:54;;;;;;;2.70;1.40;;;16.20;58.20;;;;;;5050379;28;20500;-63
2021/05/03 04:47:20;;;;;;;4.32;1.95;;;16.20;58.10;;;;;;5046661;28;20119;-66
2021/05/03 04:49:46;;;;;;;4.38;1.50;;;16.10;58.10;;;;;;5042367;28;20033;-65
2021/05/03 04:52:11;;;;;;;3.13;1.40;;;16.20;58.20;;;;;;5044827;28;20116;-64
2021/05/03 04:54:37;;;;;;;2.58;1.50;;;16.20;58.70;;;;;;5042451;28;20108;-64
2021/05/03 04:57:03;;;;;;;3.83;1.27;;;16.20;58.20;;;;;;5026119;28;20128;-66
2021/05/03 04:59:28;;;;;;;2.97;1.73;;;16.20;58.00;;;;;;5044268;28;20085;-65
2021/05/03 05:01:54;;;;;;;3.08;1.40;;;16.20;57.90;;;;;;5044692;28;20033;-64
2021/05/03 05:04:20;;;;;;;5.40;1.55;;;16.20;57.90;;;;;;5026351;28;20062;-63
2021/05/03 05:06:45;;;;;;;4.68;1.60;;;16.10;57.70;;;;;;5042571;28;20032;-65
2021/05/03 05:09:11;;;;;;;4.18;1.63;;;16.20;58.00;;;;;;5042030;28;20033;-64
2021/05/03 05:11:36;;;;;;;3.80;1.73;;;16.20;58.20;;;;;;5044456;28;20037;-63
2021/05/03 05:14:02;;;;;;;4.78;2.20;;;16.30;57.40;;;;;;5023354;28;20497;-63
2021/05/03 05:16:28;;;;;;;4.78;2.08;;;16.30;56.30;;;;;;5043889;28;20537;-66
2021/05/03 05:18:54;;;;;;;11.45;2.28;;;16.20;56.40;;;;;;5026509;28;20412;-65
2021/05/03 05:21:20;;;;;;;8.38;2.38;;;16.20;56.80;;;;;;5043176;28;20783;-62
2021/05/03 05:23:46;;;;;;;10.20;2.30;;;16.20;57.10;;;;;;5029310;28;20480;-65
2021/05/03 05:26:12;;;;;;;12.02;2.10;;;16.20;57.60;;;;;;5043347;28;20029;-66
2021/05/03 05:28:38;;;;;;;4.85;1.90;;;16.30;58.50;;;;;;5044076;28;20036;-64
2021/05/03 05:31:03;;;;;;;5.72;2.05;;;16.30;58.50;;;;;;5044219;28;20711;-64
2021/05/03 05:33:29;;;;;;;7.13;1.98;;;16.30;58.30;;;;;;5020031;28;20025;-64
2021/05/03 05:35:55;;;;;;;7.85;1.95;;;16.30;58.40;;;;;;5020058;28;20562;-65
2021/05/03 05:38:20;;;;;;;8.57;2.10;;;16.30;58.50;;;;;;5031551;28;20033;-69
2021/05/03 05:40:46;;;;;;;11.55;2.33;;;16.30;58.30;;;;;;5023787;28;20492;-65
2021/05/03 05:43:12;;;;;;;9.45;2.00;;;16.30;58.00;;;;;;5026640;28;20036;-64
2021/05/03 05:45:39;;;;;;;8.60;1.70;;;16.30;58.20;;;;;;5036712;28;20018;-65
2021/05/03 05:48:04;;;;;;;4.63;1.70;;;16.30;58.50;;;;;;5029982;28;20034;-66
2021/05/03 05:50:30;;;;;;;5.30;2.17;;;16.30;58.40;;;;;;5035800;28;20076;-67
2021/05/03 05:52:56;;;;;;;6.68;2.28;;;16.30;58.10;;;;;;5038096;28;20025;-63
2021/05/03 05:55:21;;;;;;;7.05;2.08;;;16.30;58.30;;;;;;5026265;28;20484;-63
2021/05/03 05:57:48;;;;;;;7.20;1.80;;;16.40;58.30;;;;;;5022533;28;20116;-63
2021/05/03 06:00:14;;;;;;;5.22;1.75;;;16.40;58.20;;;;;;5045530;28;20048;-63
2021/05/03 06:02:40;;;;;;;5.28;1.80;;;16.40;58.10;;;;;;5044442;28;20056;-66
2021/05/03 06:05:06;;;;;;;5.80;2.05;;;16.40;57.90;;;;;;5041003;28;20118;-64
2021/05/03 06:07:32;;;;;;;5.80;1.65;;;16.40;57.90;;;;;;5016897;28;20027;-63
2021/05/03 06:09:57;;;;;;;4.97;1.88;;;16.40;57.90;;;;;;5021092;28;20093;-63
2021/05/03 06:12:23;;;;;;;5.55;1.70;;;16.40;57.70;;;;;;5040055;28;20083;-63
2021/05/03 06:14:48;;;;;;;4.43;1.70;;;16.50;57.90;;;;;;5013815;28;20029;-63
2021/05/03 06:17:15;;;;;;;4.82;1.60;;;16.50;57.70;;;;;;5047086;28;20059;-65
2021/05/03 06:19:41;;;;;;;5.82;1.83;;;16.50;57.60;;;;;;5047094;28;20036;-67
2021/05/03 06:22:07;;;;;;;7.30;2.00;;;16.70;56.90;;;;;;5045524;28;20037;-62
2021/05/03 06:24:32;;;;;;;5.60;1.75;;;16.70;56.80;;;;;;5047284;28;20017;-63
2021/05/03 06:26:58;;;;;;;2.88;1.60;;;16.70;56.80;;;;;;5019733;28;20032;-64
2021/05/03 06:29:23;;;;;;;6.10;1.85;;;16.70;56.70;;;;;;5040304;28;20384;-69
2021/05/03 06:31:49;;;;;;;7.88;2.03;;;16.80;56.80;;;;;;5039228;28;20503;-67
2021/05/03 06:34:15;;;;;;;6.63;1.70;;;16.70;56.80;;;;;;5028859;28;20111;-65
2021/05/03 06:36:40;;;;;;;9.30;1.98;;;16.60;56.60;;;;;;5028460;28;20214;-63
2021/05/03 06:39:06;;;;;;;5.07;1.95;;;16.80;56.70;;;;;;5038711;28;20562;-65
2021/05/03 06:41:31;;;;;;;5.47;1.70;;;16.80;56.70;;;;;;5026850;28;20694;-65
2021/05/03 06:43:57;;;;;;;5.75;1.63;;;16.80;56.50;;;;;;5020426;28;20021;-62
2021/05/03 06:46:22;;;;;;;3.22;1.60;;;16.80;56.50;;;;;;5020712;28;20419;-63
2021/05/03 06:48:48;;;;;;;3.70;1.60;;;16.80;56.50;;;;;;5005108;28;20021;-63
2021/05/03 06:51:13;;;;;;;2.92;1.63;;;16.80;56.30;;;;;;5026636;28;20116;-63
2021/05/03 06:53:39;;;;;;;5.82;1.65;;;16.80;56.30;;;;;;5026108;28;20529;-63
2021/05/03 06:56:05;;;;;;;4.30;1.50;;;16.80;56.30;;;;;;5026081;28;20033;-69
2021/05/03 06:58:30;;;;;;;5.03;1.92;;;16.90;55.80;;;;;;5026042;28;20068;-67
2021/05/03 07:00:56;;;;;;;5.28;1.83;;;16.90;55.70;;;;;;5021704;28;20492;-66
2021/05/03 07:03:21;;;;;;;4.07;1.60;;;17.00;56.10;;;;;;5024989;28;20013;-62
2021/05/03 07:05:47;;;;;;;5.63;2.20;;;17.00;55.30;;;;;;5026553;28;20022;-67
2021/05/03 07:08:12;;;;;;;12.15;2.00;;;17.00;55.00;;;;;;5026346;28;20035;-64
2021/05/03 07:10:44;;;;;;;5.07;1.88;;;17.10;55.00;;;;;;5007600;28;20136;-63
2021/05/03 07:13:09;;;;;;;7.45;1.70;;;17.10;54.80;;;;;;5006768;28;20060;-65
2021/05/03 07:15:35;;;;;;;7.28;2.33;;;17.10;54.70;;;;;;5025791;28;20673;-63
2021/05/03 07:18:01;;;;;;;7.75;1.88;;;17.20;54.30;;;;;;5026616;28;20559;-63
2021/05/03 07:20:26;;;;;;;4.45;1.95;;;17.20;54.40;;;;;;5025581;28;20045;-66
2021/05/03 07:22:52;;;;;;;6.07;1.90;;;17.20;54.20;;;;;;5026822;28;20084;-71
2021/05/03 07:25:18;;;;;;;11.70;1.95;;;17.30;54.10;;;;;;5020204;28;20496;-65
2021/05/03 07:27:43;;;;;;;6.20;2.10;;;17.30;54.10;;;;;;5016169;28;20025;-63
2021/05/03 07:30:12;;;;;;;5.63;1.85;;;17.30;53.80;;;;;;5008309;28;20112;-65
2021/05/03 07:32:38;;;;;;;6.53;2.35;;;17.40;53.70;;;;;;5018530;28;20021;-63
2021/05/03 07:35:06;;;;;;;8.55;2.53;;;17.50;53.50;;;;;;5021857;28;20049;-66
2021/05/03 07:37:32;;;;;;;5.68;2.70;;;17.50;53.50;;;;;;5007460;28;20040;-63
2021/05/03 07:39:57;;;;;;;7.50;3.33;;;17.60;53.50;;;;;;5006680;28;20494;-65
2021/05/03 07:42:23;;;;;;;6.55;2.83;;;17.60;53.10;;;;;;5024667;28;20045;-66
2021/05/03 07:44:49;;;;;;;5.40;2.72;;;17.80;52.60;;;;;;5026046;28;20028;-67
2021/05/03 07:47:15;;;;;;;8.32;2.42;;;17.90;52.70;;;;;;5026049;28;20090;-63
2021/05/03 07:49:40;;;;;;;10.18;3.00;;;18.00;51.80;;;;;;5022975;28;20506;-63
2021/05/03 07:52:07;;;;;;;9.15;3.00;;;18.10;51.50;;;;;;5014612;28;20049;-67
2021/05/03 07:54:33;;;;;;;6.45;2.50;;;18.10;51.40;;;;;;5023573;28;20104;-63
2021/05/03 07:56:59;;;;;;;6.28;2.63;;;18.10;51.30;;;;;;5026442;28;20567;-68
2021/05/03 07:59:25;;;;;;;6.72;2.70;;;18.10;51.40;;;;;;5028490;28;20476;-65
2021/05/03 08:01:51;;;;;;;5.63;2.53;;;18.10;51.30;;;;;;5023265;28;20041;-64
2021/05/03 08:04:17;;;;;;;8.52;2.80;;;18.20;51.30;;;;;;5022065;28;20021;-64
2021/05/03 08:06:43;;;;;;;8.73;2.60;;;18.10;51.10;;;;;;5017247;28;20486;-66
2021/05/03 08:09:08;;;;;;;7.22;3.08;;;18.10;51.30;;;;;;5008872;28;20049;-64
2021/05/03 08:11:34;;;;;;;7.78;2.80;;;18.00;51.00;;;;;;5021512;28;20477;-63
2021/05/03 08:14:00;;;;;;;6.13;2.80;;;18.00;51.00;;;;;;5022715;28;20044;-65
2021/05/03 08:16:27;;;;;;;6.60;3.38;;;18.00;50.70;;;;;;5010683;28;20404;-67
2021/05/03 08:18:53;;;;;;;8.50;5.00;;;18.10;50.40;;;;;;5015159;28;20165;-63
2021/05/03 08:21:19;;;;;;;6.72;2.70;;;18.10;49.60;;;;;;5032258;28;20108;-63
2021/05/03 08:23:44;;;;;;;12.10;4.00;;;18.20;50.70;;;;;;5033826;28;20017;-63
2021/05/03 08:26:10;;;;;;;6.35;2.60;;;18.20;50.20;;;;;;5013394;28;20036;-65
2021/05/03 08:28:39;;;;;;;7.68;3.15;;;18.20;50.20;;;;;;5014145;28;20560;-65
2021/05/03 08:31:05;;;;;;;7.82;3.08;;;18.20;49.80;;;;;;5021512;28;20513;-66
2021/05/03 08:33:30;;;;;;;6.68;3.28;;;18.30;50.10;;;;;;5011231;28;20096;-65
2021/05/03 08:35:57;;;;;;;6.93;2.70;;;18.50;48.80;;;;;;5030346;28;20111;-66
2021/05/03 08:38:23;;;;;;;6.00;2.97;;;18.50;49.40;;;;;;5043863;28;20362;-63
2021/05/03 08:40:49;;;;;;;7.68;2.80;;;18.60;48.70;;;;;;5034344;28;20066;-69
2021/05/03 08:43:14;;;;;;;7.03;2.70;;;18.60;49.00;;;;;;5043878;28;20032;-64
2021/05/03 08:45:41;;;;;;;7.95;3.15;;;18.60;48.80;;;;;;5025677;28;20112;-67
2021/05/03 08:48:20;;;;;;;6.32;2.47;;;18.60;48.80;;;;;;5045250;28;20064;-63
2021/05/03 08:53:32;;;;;;;8.15;2.42;;;18.40;48.80;;;;;;5045137;28;20029;-65
2021/05/03 08:55:57;;;;;;;7.70;2.90;;;18.30;48.60;;;;;;5043619;28;20061;-64
2021/05/03 08:58:24;;;;;;;6.15;2.67;;;18.30;48.70;;;;;;5045972;28;20102;-63
2021/05/03 09:00:50;;;;;;;7.38;3.25;;;18.30;48.70;;;;;;5031158;28;20079;-63
2021/05/03 09:03:16;;;;;;;5.53;2.58;;;18.20;48.80;;;;;;5050428;28;20025;-62
2021/05/03 09:05:43;;;;;;;6.47;3.10;;;18.20;48.70;;;;;;5048632;28;20019;-59
2021/05/03 09:08:22;;;;;;;12.30;2.90;;;18.20;48.60;;;;;;5046708;28;20492;-65
2021/05/03 09:10:47;;;;;;;7.22;2.80;;;18.20;48.60;;;;;;5047279;28;20029;-62
2021/05/03 09:13:13;;;;;;;8.23;3.45;;;18.20;48.70;;;;;;5032361;28;20403;-64
2021/05/03 09:15:39;;;;;;;8.38;2.47;;;18.20;48.50;;;;;;5051138;28;20033;-65
2021/05/03 09:18:05;;;;;;;7.63;2.90;;;18.20;48.40;;;;;;5055084;28;20094;-62
2021/05/03 09:20:31;;;;;;;6.40;2.92;;;18.20;48.30;;;;;;5070962;28;20058;-60
2021/05/03 09:23:02;;;;;;;7.88;3.05;;;18.30;48.40;;;;;;5066165;28;20529;-62
2021/05/03 09:28:13;;;;;;;6.28;2.80;;;18.40;47.80;;;;;;5055789;28;20538;-60
2021/05/03 09:30:42;;;;;;;6.25;2.97;;;18.60;47.50;;;;;;5054865;28;20487;-61
2021/05/03 09:33:17;;;;;;;7.50;3.03;;;18.70;47.30;;;;;;5054671;28;20079;-61
2021/05/03 09:35:44;;;;;;;9.52;3.30;;;18.90;46.70;;;;;;5057739;28;20078;-64
2021/05/03 09:38:32;;;;;;;7.10;2.85;;;18.90;46.50;;;;;;5044411;28;20496;-62
2021/05/03 09:41:20;;;;;;;6.93;2.50;;;19.00;46.60;;;;;;5036298;28;20124;-61
2021/05/03 09:44:02;;;;;;;8.82;2.72;;;19.10;46.80;;;;;;5036690;28;20045;-63
2021/05/03 09:46:31;;;;;;;6.53;2.45;;;19.10;46.70;;;;;;5054610;28;20502;-62
2021/05/03 09:49:00;;;;;;;6.50;2.60;;;19.30;46.40;;;;;;5058431;28;20204;-62
2021/05/03 09:51:29;;;;;;;8.90;2.80;;;19.30;46.50;;;;;;5039981;28;20033;-62
2021/05/03 09:54:08;;;;;;;5.20;2.38;;;19.40;46.20;;;;;;5054296;28;20029;-62
2021/05/03 09:56:54;;;;;;;6.60;2.58;;;19.50;46.30;;;;;;5054417;28;20048;-65
2021/05/03 09:59:31;;;;;;;8.13;2.42;;;19.60;46.10;;;;;;5072046;22;20044;-68
2021/05/03 10:02:09;;;;;;;5.78;2.38;;;19.70;45.80;;;;;;5055593;28;20028;-68
2021/05/03 10:04:36;;;;;;;7.75;2.30;;;19.80;45.60;;;;;;5036251;28;20078;-67
2021/05/03 10:07:03;;;;;;;5.90;2.40;;;20.00;45.30;;;;;;5036417;28;20055;-68
2021/05/03 10:09:30;;;;;;;6.55;2.42;;;20.10;45.00;;;;;;5053863;28;20487;-68
2021/05/03 10:11:56;;;;;;;6.15;2.10;;;20.10;44.80;;;;;;5036169;28;20458;-68
2021/05/03 10:14:22;;;;;;;6.30;2.30;;;19.80;45.10;;;;;;5039380;28;20025;-67
2021/05/03 10:16:48;;;;;;;7.35;2.65;;;19.60;45.50;;;;;;5055733;28;20403;-69
2021/05/03 10:19:17;;;;;;;7.32;2.33;;;19.40;46.10;;;;;;5053895;28;20108;-68
2021/05/03 10:21:43;;;;;;;5.45;2.38;;;19.30;46.50;;;;;;5036126;28;20504;-68
2021/05/03 10:24:10;;;;;;;7.25;2.30;;;19.40;47.00;;;;;;5053604;28;20021;-68
2021/05/03 10:26:35;;;;;;;6.13;2.20;;;19.60;46.40;;;;;;5053207;28;20090;-68
2021/05/03 10:29:02;;;;;;;8.05;2.25;;;19.80;45.90;;;;;;5053680;28;20025;-68
2021/05/03 10:31:28;;;;;;;8.38;2.15;;;20.00;45.60;;;;;;5053198;28;20021;-67
2021/05/03 10:33:54;;;;;;;4.10;1.67;;;20.10;45.00;;;;;;5053720;28;20648;-68
2021/05/03 10:36:36;;;;;;;4.80;1.80;;;20.10;44.90;;;;;;5054107;28;20025;-68
2021/05/03 10:39:30;;;;;;;5.13;2.05;;;20.20;45.00;;;;;;5055898;28;20037;-67
2021/05/03 10:42:23;;;;;;;4.88;2.15;;;20.20;44.80;;;;;;5049006;28;20488;-68
2021/05/03 10:45:18;;;;;;;5.13;2.00;;;20.20;44.80;;;;;;5030752;28;20377;-67
2021/05/03 10:47:47;;;;;;;6.90;2.10;;;20.20;44.90;;;;;;5052018;28;20021;-68
2021/05/03 10:50:34;;;;;;;4.25;2.00;;;20.20;44.70;;;;;;5035507;28;20024;-67
2021/05/03 10:53:24;;;;;;;4.88;1.92;;;20.00;45.00;;;;;;5054867;28;20544;-67
2021/05/03 10:56:04;;;;;;;6.43;2.00;;;19.80;45.30;;;;;;5052158;28;20499;-69
2021/05/03 10:58:30;;;;;;;6.15;2.30;;;19.70;45.70;;;;;;5051839;28;20021;-66
2021/05/03 11:01:05;;;;;;;4.57;1.90;;;19.50;45.90;;;;;;5034178;28;20033;-67
2021/05/03 11:03:55;;;;;;;4.72;2.00;;;19.50;46.40;;;;;;5034394;28;20116;-69
2021/05/03 11:06:36;;;;;;;6.53;1.98;;;19.30;46.60;;;;;;5034011;28;20029;-68
2021/05/03 11:09:39;;;;;;;4.78;1.83;;;19.30;46.70;;;;;;5056962;28;20086;-68
2021/05/03 11:12:12;;;;;;;5.65;2.03;;;19.30;46.90;;;;;;5044622;28;20029;-68
2021/05/03 11:14:40;;;;;;;3.83;1.70;;;19.50;46.80;;;;;;5052714;28;20119;-67
2021/05/03 11:17:09;;;;;;;4.18;1.65;;;19.60;46.30;;;;;;5038796;28;20040;-68
2021/05/03 11:20:16;;;;;;;4.45;1.60;;;19.50;46.00;;;;;;5051593;28;20029;-68
2021/05/03 11:23:04;;;;;;;6.93;2.13;;;19.40;46.50;;;;;;5049649;28;20029;-68
2021/05/03 11:25:33;;;;;;;11.05;2.58;;;19.30;46.80;;;;;;5043714;28;20033;-68
2021/05/03 11:28:15;;;;;;;8.95;2.22;;;19.20;47.00;;;;;;5034598;28;20116;-67
2021/05/03 11:30:47;;;;;;;8.48;2.40;;;19.20;47.20;;;;;;5034545;28;20029;-68
2021/05/03 11:33:16;;;;;;;7.07;2.10;;;19.40;46.90;;;;;;5052792;28;20070;-69
2021/05/03 11:35:51;;;;;;;7.75;1.90;;;19.40;46.70;;;;;;5034506;28;20036;-67
2021/05/03 11:38:37;;;;;;;6.60;2.25;;;19.30;46.80;;;;;;5052324;28;20028;-68
2021/05/03 11:41:11;;;;;;;10.07;2.25;;;19.20;46.90;;;;;;5052331;28;20025;-68
2021/05/03 11:44:10;;;;;;;6.13;2.10;;;19.10;47.20;;;;;;5035457;28;20064;-68
2021/05/03 11:46:36;;;;;;;;;;;19.10;47.10;;;;;;5052600;28;20083;-68
2021/05/03 11:49:12;;;;;;;6.97;2.33;;;19.10;47.30;;;;;;5034364;28;19905;-67
2021/05/03 11:51:57;;;;;;;4.95;1.92;;;19.00;47.30;;;;;;5053601;28;20027;-67
2021/05/03 11:54:41;;;;;;;5.55;2.13;;;18.90;47.50;;;;;;5051733;28;20029;-67
2021/05/03 11:57:18;;;;;;;7.13;1.90;;;18.90;47.70;;;;;;5052119;28;20057;-68
2021/05/03 11:59:46;;;;;;;6.90;2.08;;;18.90;47.80;;;;;;5052336;28;20618;-68
2021/05/03 12:02:14;;;;;;;4.70;1.98;;;18.90;47.90;;;;;;5033895;28;20079;-68
2021/05/03 12:04:43;;;;;;;6.95;1.85;;;18.90;47.90;;;;;;5054456;28;20100;-68
2021/05/03 12:07:20;;;;;;;3.97;1.80;;;18.80;47.90;;;;;;5033565;28;20025;-67
2021/05/03 12:09:47;;;;;;;3.83;1.70;;;18.80;48.00;;;;;;5050668;28;20020;-67
2021/05/03 12:12:15;;;;;;;3.28;1.70;;;18.80;47.90;;;;;;5033770;28;20496;-69
2021/05/03 12:14:44;;;;;;;4.65;1.95;;;18.90;47.90;;;;;;5050274;28;20029;-68
2021/05/03 12:17:14;;;;;;;4.55;1.80;;;18.90;47.80;;;;;;5034262;28;20071;-68
2021/05/03 12:19:40;;;;;;;3.05;1.65;;;18.90;47.70;;;;;;5032606;28;20028;-68
2021/05/03 12:22:05;;;;;;;3.72;1.75;;;18.90;47.90;;;;;;5050301;28;20024;-68
2021/05/03 12:24:37;;;;;;;3.20;1.60;;;18.90;47.90;;;;;;5031839;28;20048;-68
2021/05/03 12:27:03;;;;;;;6.15;2.13;;;18.80;48.00;;;;;;5050496;28;20025;-68
2021/05/03 12:29:29;;;;;;;4.35;2.05;;;18.90;48.10;;;;;;5033369;28;20021;-68
2021/05/03 12:31:56;;;;;;;4.30;1.90;;;18.90;48.50;;;;;;5033877;28;20021;-67
2021/05/03 12:34:23;;;;;;;5.65;2.08;;;18.90;47.90;;;;;;5033428;28;20078;-68
2021/05/03 12:37:19;;;;;;;4.53;1.90;;;18.90;47.90;;;;;;5051649;28;20028;-68
2021/05/03 12:39:58;;;;;;;4.28;1.88;;;18.80;48.00;;;;;;5051455;28;20104;-68
2021/05/03 12:42:31;;;;;;;2.63;1.60;;;18.80;48.10;;;;;;5034679;28;20447;-70
2021/05/03 12:44:58;;;;;;;5.88;1.98;;;18.70;48.10;;;;;;5051235;28;20028;-68
2021/05/03 12:47:34;;;;;;;3.70;1.73;;;18.70;48.10;;;;;;5033399;28;20025;-68
2021/05/03 12:50:11;;;;;;;4.70;2.20;;;18.80;48.20;;;;;;5032548;28;20029;-67
2021/05/03 12:52:52;;;;;;;5.25;2.30;;;18.70;48.70;;;;;;5051436;28;20040;-69
2021/05/03 13:01:20;;;;;;;5.60;2.00;;;18.80;48.30;;;;;;5049468;28;20099;-69
2021/05/03 13:03:57;;;;;;;10.60;1.85;;;18.80;48.20;;;;;;5050026;28;20021;-69
2021/05/03 13:06:31;;;;;;;12.05;2.50;;;18.80;48.30;;;;;;5050557;28;20044;-67
2021/05/03 13:29:03;;;;;;;7.78;2.10;;;18.50;48.30;;;;;;5051128;28;20103;-68
2021/05/03 13:31:30;;;;;;;7.63;1.90;;;18.50;48.50;;;;;;5051186;28;20392;-67
2021/05/03 13:33:56;;;;;;;5.15;2.10;;;18.40;48.40;;;;;;5033184;28;20032;-68
2021/05/03 13:36:22;;;;;;;7.32;2.22;;;18.50;48.50;;;;;;5051015;28;20036;-67